sensor_id;sensor_type;location;lat;lon;timestamp;temperature;humidity
11908;DHT22;6014;47.690;9.130;2022-10-26T00:02:11;12.80;99.90
11908;DHT22;6014;47.690;9.130;2022-10-26T00:04:40;12.80;99.90
11908;DHT22;6014;47.690;9.130;2022-10-26T00:07:09;12.80;99.90
11908;DHT22;6014;47.690;9.130;2022-10-26T00:09:37;12.80;99.90
11908;DHT22;6014;47.690;9.130;2022-10-26T00:12:06;12.80;99.90
11908;DHT22;6014;47.690;9.130;2022-10-26T00:14:34;12.80;99.90
11908;DHT22;6014;47.690;9.130;2022-10-26T00:17:02;12.90;99.90
11908;DHT22;6014;47.690;9.130;2022-10-26T00:19:33;12.90;99.90
11908;DHT22;6014;47.690;9.130;2022-10-26T00:22:03;13.00;99.90
11908;DHT22;6014;47.690;9.130;2022-10-26T00:24:32;13.00;99.90
11908;DHT22;6014;47.690;9.130;2022-10-26T00:27:00;12.90;99.90
11908;DHT22;6014;47.690;9.130;2022-10-26T00:29:28;12.80;99.90
11908;DHT22;6014;47.690;9.130;2022-10-26T00:31:57;12.80;99.90
11908;DHT22;6014;47.690;9.130;2022-10-26T00:34:25;12.80;99.90
11908;DHT22;6014;47.690;9.130;2022-10-26T00:36:55;12.70;99.90
11908;DHT22;6014;47.690;9.130;2022-10-26T00:39:23;12.80;99.90
11908;DHT22;6014;47.690;9.130;2022-10-26T00:41:51;12.80;99.90
11908;DHT22;6014;47.690;9.130;2022-10-26T00:47:36;12.80;99.90
11908;DHT22;6014;47.690;9.130;2022-10-26T00:50:09;12.80;99.90
11908;DHT22;6014;47.690;9.130;2022-10-26T00:52:40;12.70;99.90
11908;DHT22;6014;47.690;9.130;2022-10-26T00:55:09;12.60;99.90
11908;DHT22;6014;47.690;9.130;2022-10-26T00:57:38;12.60;99.90
11908;DHT22;6014;47.690;9.130;2022-10-26T01:00:07;12.60;99.90
11908;DHT22;6014;47.690;9.130;2022-10-26T01:02:36;12.60;99.90
11908;DHT22;6014;47.690;9.130;2022-10-26T01:05:05;12.60;99.90
11908;DHT22;6014;47.690;9.130;2022-10-26T01:07:34;12.60;99.90
11908;DHT22;6014;47.690;9.130;2022-10-26T01:10:06;12.60;99.90
11908;DHT22;6014;47.690;9.130;2022-10-26T01:12:36;12.60;99.90
11908;DHT22;6014;47.690;9.130;2022-10-26T01:15:05;12.50;99.90
11908;DHT22;6014;47.690;9.130;2022-10-26T01:17:42;12.50;99.90
11908;DHT22;6014;47.690;9.130;2022-10-26T01:20:37;12.40;99.90
11908;DHT22;6014;47.690;9.130;2022-10-26T01:23:20;12.40;99.90
11908;DHT22;6014;47.690;9.130;2022-10-26T01:26:17;12.40;99.90
11908;DHT22;6014;47.690;9.130;2022-10-26T01:29:19;12.40;99.90
11908;DHT22;6014;47.690;9.130;2022-10-26T01:32:03;12.30;99.90
11908;DHT22;6014;47.690;9.130;2022-10-26T01:34:39;12.20;99.90
11908;DHT22;6014;47.690;9.130;2022-10-26T01:37:13;12.20;99.90
11908;DHT22;6014;47.690;9.130;2022-10-26T01:39:47;12.10;99.90
11908;DHT22;6014;47.690;9.130;2022-10-26T01:42:21;11.90;99.90
11908;DHT22;6014;47.690;9.130;2022-10-26T01:44:53;11.80;99.90
11908;DHT22;6014;47.690;9.130;2022-10-26T01:47:26;11.70;99.90
11908;DHT22;6014;47.690;9.130;2022-10-26T01:49:58;11.70;99.90
11908;DHT22;6014;47.690;9.130;2022-10-26T01:52:27;11.70;99.90
11908;DHT22;6014;47.690;9.130;2022-10-26T01:55:00;11.70;99.90
11908;DHT22;6014;47.690;9.130;2022-10-26T01:57:32;11.50;99.90
11908;DHT22;6014;47.690;9.130;2022-10-26T02:00:05;11.40;99.90
11908;DHT22;6014;47.690;9.130;2022-10-26T02:02:59;11.30;99.90
11908;DHT22;6014;47.690;9.130;2022-10-26T02:05:47;11.30;99.90
11908;DHT22;6014;47.690;9.130;2022-10-26T02:08:30;11.20;99.90
11908;DHT22;6014;47.690;9.130;2022-10-26T02:11:13;11.20;99.90
11908;DHT22;6014;47.690;9.130;2022-10-26T02:13:53;11.20;99.90
11908;DHT22;6014;47.690;9.130;2022-10-26T02:16:25;11.30;99.90
11908;DHT22;6014;47.690;9.130;2022-10-26T02:19:01;11.40;99.90
11908;DHT22;6014;47.690;9.130;2022-10-26T02:21:36;11.60;99.90
11908;DHT22;6014;47.690;9.130;2022-10-26T02:24:09;11.70;99.90
11908;DHT22;6014;47.690;9.130;2022-10-26T02:26:40;11.80;99.90
11908;DHT22;6014;47.690;9.130;2022-10-26T02:29:14;11.80;99.90
11908;DHT22;6014;47.690;9.130;2022-10-26T02:31:46;12.30;99.90
11908;DHT22;6014;47.690;9.130;2022-10-26T02:34:20;12.40;99.90
11908;DHT22;6014;47.690;9.130;2022-10-26T02:36:50;12.60;99.90
11908;DHT22;6014;47.690;9.130;2022-10-26T02:39:21;12.70;99.90
11908;DHT22;6014;47.690;9.130;2022-10-26T02:41:50;12.80;99.90
11908;DHT22;6014;47.690;9.130;2022-10-26T02:44:22;12.80;99.90
11908;DHT22;6014;47.690;9.130;2022-10-26T02:46:54;12.90;99.90
11908;DHT22;6014;47.690;9.130;2022-10-26T02:49:24;13.00;99.90
11908;DHT22;6014;47.690;9.130;2022-10-26T02:51:59;13.00;99.90
11908;DHT22;6014;47.690;9.130;2022-10-26T02:54:34;13.00;99.90
11908;DHT22;6014;47.690;9.130;2022-10-26T02:57:09;13.00;99.90
11908;DHT22;6014;47.690;9.130;2022-10-26T02:59:43;12.90;99.90
11908;DHT22;6014;47.690;9.130;2022-10-26T03:02:14;13.00;99.90
11908;DHT22;6014;47.690;9.130;2022-10-26T03:04:45;13.00;99.90
11908;DHT22;6014;47.690;9.130;2022-10-26T03:07:20;13.10;99.90
11908;DHT22;6014;47.690;9.130;2022-10-26T03:09:49;13.10;99.90
11908;DHT22;6014;47.690;9.130;2022-10-26T03:12:18;13.00;99.90
11908;DHT22;6014;47.690;9.130;2022-10-26T03:14:46;13.00;99.90
11908;DHT22;6014;47.690;9.130;2022-10-26T03:17:15;12.90;99.90
11908;DHT22;6014;47.690;9.130;2022-10-26T03:19:44;12.90;99.90
11908;DHT22;6014;47.690;9.130;2022-10-26T03:22:13;12.80;99.90
11908;DHT22;6014;47.690;9.130;2022-10-26T03:24:41;12.90;99.90
11908;DHT22;6014;47.690;9.130;2022-10-26T03:27:09;12.80;99.90
11908;DHT22;6014;47.690;9.130;2022-10-26T03:29:38;12.80;99.90
11908;DHT22;6014;47.690;9.130;2022-10-26T03:32:06;12.80;99.90
11908;DHT22;6014;47.690;9.130;2022-10-26T03:34:35;12.80;99.90
11908;DHT22;6014;47.690;9.130;2022-10-26T03:37:04;12.80;99.90
11908;DHT22;6014;47.690;9.130;2022-10-26T03:39:33;12.70;99.90
11908;DHT22;6014;47.690;9.130;2022-10-26T03:42:01;12.70;99.90
11908;DHT22;6014;47.690;9.130;2022-10-26T03:44:30;12.70;99.90
11908;DHT22;6014;47.690;9.130;2022-10-26T03:46:58;12.70;99.90
11908;DHT22;6014;47.690;9.130;2022-10-26T03:49:26;12.70;99.90
11908;DHT22;6014;47.690;9.130;2022-10-26T03:51:55;12.70;99.90
11908;DHT22;6014;47.690;9.130;2022-10-26T03:54:24;12.70;99.90
11908;DHT22;6014;47.690;9.130;2022-10-26T03:56:53;12.70;99.90
11908;DHT22;6014;47.690;9.130;2022-10-26T03:59:21;12.70;99.90
11908;DHT22;6014;47.690;9.130;2022-10-26T04:01:50;12.70;99.90
11908;DHT22;6014;47.690;9.130;2022-10-26T04:04:23;12.80;99.90
11908;DHT22;6014;47.690;9.130;2022-10-26T04:06:52;12.70;99.90
11908;DHT22;6014;47.690;9.130;2022-10-26T04:09:20;13.00;99.90
11908;DHT22;6014;47.690;9.130;2022-10-26T04:11:50;12.80;99.90
11908;DHT22;6014;47.690;9.130;2022-10-26T04:14:18;12.90;99.90
11908;DHT22;6014;47.690;9.130;2022-10-26T04:16:47;13.00;99.90
11908;DHT22;6014;47.690;9.130;2022-10-26T04:19:16;13.00;99.90
11908;DHT22;6014;47.690;9.130;2022-10-26T04:21:44;13.00;99.90
11908;DHT22;6014;47.690;9.130;2022-10-26T04:24:12;13.10;99.90
11908;DHT22;6014;47.690;9.130;2022-10-26T04:26:41;13.20;99.90
11908;DHT22;6014;47.690;9.130;2022-10-26T04:29:12;13.10;99.90
11908;DHT22;6014;47.690;9.130;2022-10-26T04:31:40;13.10;99.90
11908;DHT22;6014;47.690;9.130;2022-10-26T04:34:14;13.10;99.90
11908;DHT22;6014;47.690;9.130;2022-10-26T04:36:42;13.10;99.90
11908;DHT22;6014;47.690;9.130;2022-10-26T04:39:10;13.10;99.90
11908;DHT22;6014;47.690;9.130;2022-10-26T04:41:39;13.20;99.90
11908;DHT22;6014;47.690;9.130;2022-10-26T04:44:07;13.20;99.90
11908;DHT22;6014;47.690;9.130;2022-10-26T04:46:37;13.20;99.90
11908;DHT22;6014;47.690;9.130;2022-10-26T04:49:05;13.10;99.90
11908;DHT22;6014;47.690;9.130;2022-10-26T04:51:33;13.10;99.90
11908;DHT22;6014;47.690;9.130;2022-10-26T04:54:02;13.00;99.90
11908;DHT22;6014;47.690;9.130;2022-10-26T04:56:30;12.80;99.90
11908;DHT22;6014;47.690;9.130;2022-10-26T04:59:00;12.80;99.90
11908;DHT22;6014;47.690;9.130;2022-10-26T05:01:30;12.80;99.90
11908;DHT22;6014;47.690;9.130;2022-10-26T05:04:00;12.70;99.90
11908;DHT22;6014;47.690;9.130;2022-10-26T05:06:29;12.60;99.90
11908;DHT22;6014;47.690;9.130;2022-10-26T05:08:57;12.60;99.90
11908;DHT22;6014;47.690;9.130;2022-10-26T05:11:26;12.60;99.90
11908;DHT22;6014;47.690;9.130;2022-10-26T05:13:54;12.60;99.90
11908;DHT22;6014;47.690;9.130;2022-10-26T05:16:22;12.60;99.90
11908;DHT22;6014;47.690;9.130;2022-10-26T05:18:51;12.60;99.90
11908;DHT22;6014;47.690;9.130;2022-10-26T05:21:21;12.50;99.90
11908;DHT22;6014;47.690;9.130;2022-10-26T05:23:50;12.40;99.90
11908;DHT22;6014;47.690;9.130;2022-10-26T05:26:19;12.40;99.90
11908;DHT22;6014;47.690;9.130;2022-10-26T05:28:48;12.50;99.90
11908;DHT22;6014;47.690;9.130;2022-10-26T05:31:18;12.50;99.90
11908;DHT22;6014;47.690;9.130;2022-10-26T05:33:48;12.60;99.90
11908;DHT22;6014;47.690;9.130;2022-10-26T05:36:17;12.60;99.90
11908;DHT22;6014;47.690;9.130;2022-10-26T05:38:47;12.60;99.90
11908;DHT22;6014;47.690;9.130;2022-10-26T05:41:15;12.50;99.90
11908;DHT22;6014;47.690;9.130;2022-10-26T05:43:46;12.50;99.90
11908;DHT22;6014;47.690;9.130;2022-10-26T05:46:14;12.50;99.90
11908;DHT22;6014;47.690;9.130;2022-10-26T05:48:43;12.50;99.90
11908;DHT22;6014;47.690;9.130;2022-10-26T05:51:11;12.40;99.90
11908;DHT22;6014;47.690;9.130;2022-10-26T05:53:40;12.40;99.90
11908;DHT22;6014;47.690;9.130;2022-10-26T05:56:16;12.50;99.90
11908;DHT22;6014;47.690;9.130;2022-10-26T05:58:47;12.50;99.90
11908;DHT22;6014;47.690;9.130;2022-10-26T06:01:24;12.40;99.90
11908;DHT22;6014;47.690;9.130;2022-10-26T06:04:15;12.50;99.90
11908;DHT22;6014;47.690;9.130;2022-10-26T06:06:54;12.50;99.90
11908;DHT22;6014;47.690;9.130;2022-10-26T06:09:23;12.40;99.90
11908;DHT22;6014;47.690;9.130;2022-10-26T06:11:54;12.40;99.90
11908;DHT22;6014;47.690;9.130;2022-10-26T06:14:23;12.40;99.90
11908;DHT22;6014;47.690;9.130;2022-10-26T06:17:11;12.40;99.90
11908;DHT22;6014;47.690;9.130;2022-10-26T06:19:56;12.40;99.90
11908;DHT22;6014;47.690;9.130;2022-10-26T06:22:56;12.30;99.90
11908;DHT22;6014;47.690;9.130;2022-10-26T06:25:37;12.30;99.90
11908;DHT22;6014;47.690;9.130;2022-10-26T06:28:21;12.20;99.90
11908;DHT22;6014;47.690;9.130;2022-10-26T06:30:55;12.30;99.90
11908;DHT22;6014;47.690;9.130;2022-10-26T06:33:25;12.30;99.90
11908;DHT22;6014;47.690;9.130;2022-10-26T06:36:06;12.30;99.90
11908;DHT22;6014;47.690;9.130;2022-10-26T06:38:43;12.40;99.90
11908;DHT22;6014;47.690;9.130;2022-10-26T06:41:13;12.30;99.90
11908;DHT22;6014;47.690;9.130;2022-10-26T06:43:47;12.40;99.90
11908;DHT22;6014;47.690;9.130;2022-10-26T06:46:24;12.30;99.90
11908;DHT22;6014;47.690;9.130;2022-10-26T06:49:04;12.30;99.90
11908;DHT22;6014;47.690;9.130;2022-10-26T06:51:45;12.40;99.90
11908;DHT22;6014;47.690;9.130;2022-10-26T06:54:21;12.40;99.90
11908;DHT22;6014;47.690;9.130;2022-10-26T06:56:52;12.50;99.90
11908;DHT22;6014;47.690;9.130;2022-10-26T06:59:30;12.50;99.90
11908;DHT22;6014;47.690;9.130;2022-10-26T07:02:08;12.50;99.90
11908;DHT22;6014;47.690;9.130;2022-10-26T07:04:36;12.50;99.90
11908;DHT22;6014;47.690;9.130;2022-10-26T07:07:04;12.60;99.90
11908;DHT22;6014;47.690;9.130;2022-10-26T07:09:33;12.60;99.90
11908;DHT22;6014;47.690;9.130;2022-10-26T07:12:01;12.60;99.90
11908;DHT22;6014;47.690;9.130;2022-10-26T07:14:31;12.70;99.90
11908;DHT22;6014;47.690;9.130;2022-10-26T07:17:00;12.60;99.90
11908;DHT22;6014;47.690;9.130;2022-10-26T07:19:28;12.70;99.90
11908;DHT22;6014;47.690;9.130;2022-10-26T07:21:57;12.70;99.90
11908;DHT22;6014;47.690;9.130;2022-10-26T07:24:26;12.80;99.90
11908;DHT22;6014;47.690;9.130;2022-10-26T07:26:56;12.80;99.90
11908;DHT22;6014;47.690;9.130;2022-10-26T07:29:26;12.80;99.90
11908;DHT22;6014;47.690;9.130;2022-10-26T07:31:55;12.90;99.90
11908;DHT22;6014;47.690;9.130;2022-10-26T07:34:24;12.90;99.90
11908;DHT22;6014;47.690;9.130;2022-10-26T07:36:53;12.80;99.90
11908;DHT22;6014;47.690;9.130;2022-10-26T07:39:22;12.90;99.90
11908;DHT22;6014;47.690;9.130;2022-10-26T07:41:50;13.00;99.90
11908;DHT22;6014;47.690;9.130;2022-10-26T07:44:19;13.00;99.90
11908;DHT22;6014;47.690;9.130;2022-10-26T07:46:47;13.10;99.90
11908;DHT22;6014;47.690;9.130;2022-10-26T07:49:17;13.30;99.90
11908;DHT22;6014;47.690;9.130;2022-10-26T07:51:46;13.50;99.90
11908;DHT22;6014;47.690;9.130;2022-10-26T07:54:14;13.50;99.90
11908;DHT22;6014;47.690;9.130;2022-10-26T07:56:43;13.50;99.90
11908;DHT22;6014;47.690;9.130;2022-10-26T07:59:11;13.70;99.90
11908;DHT22;6014;47.690;9.130;2022-10-26T08:01:40;13.70;99.90
11908;DHT22;6014;47.690;9.130;2022-10-26T08:04:08;13.90;99.90
11908;DHT22;6014;47.690;9.130;2022-10-26T08:06:38;14.00;99.90
11908;DHT22;6014;47.690;9.130;2022-10-26T08:09:06;14.00;99.90
11908;DHT22;6014;47.690;9.130;2022-10-26T08:11:35;13.90;99.90
11908;DHT22;6014;47.690;9.130;2022-10-26T08:14:03;13.90;99.90
11908;DHT22;6014;47.690;9.130;2022-10-26T08:16:32;13.90;99.90
11908;DHT22;6014;47.690;9.130;2022-10-26T08:19:01;14.00;99.90
11908;DHT22;6014;47.690;9.130;2022-10-26T08:21:29;14.20;99.90
11908;DHT22;6014;47.690;9.130;2022-10-26T08:24:08;14.30;99.90
11908;DHT22;6014;47.690;9.130;2022-10-26T08:26:36;14.40;99.90
11908;DHT22;6014;47.690;9.130;2022-10-26T08:29:05;14.30;99.90
11908;DHT22;6014;47.690;9.130;2022-10-26T08:31:33;14.40;99.90
11908;DHT22;6014;47.690;9.130;2022-10-26T08:34:02;14.60;99.90
11908;DHT22;6014;47.690;9.130;2022-10-26T08:36:31;14.60;99.90
11908;DHT22;6014;47.690;9.130;2022-10-26T08:39:00;14.50;99.90
11908;DHT22;6014;47.690;9.130;2022-10-26T08:41:34;14.50;99.90
11908;DHT22;6014;47.690;9.130;2022-10-26T08:44:18;14.40;99.90
11908;DHT22;6014;47.690;9.130;2022-10-26T08:46:56;14.40;99.90
11908;DHT22;6014;47.690;9.130;2022-10-26T08:49:30;14.40;99.90
11908;DHT22;6014;47.690;9.130;2022-10-26T08:52:05;14.30;99.90
11908;DHT22;6014;47.690;9.130;2022-10-26T08:54:37;14.30;99.90
11908;DHT22;6014;47.690;9.130;2022-10-26T08:57:15;14.40;99.90
11908;DHT22;6014;47.690;9.130;2022-10-26T08:59:49;14.50;99.90
11908;DHT22;6014;47.690;9.130;2022-10-26T09:02:22;14.50;99.90
11908;DHT22;6014;47.690;9.130;2022-10-26T09:04:51;14.60;99.90
11908;DHT22;6014;47.690;9.130;2022-10-26T09:07:39;14.60;99.90
11908;DHT22;6014;47.690;9.130;2022-10-26T09:10:30;14.60;99.90
11908;DHT22;6014;47.690;9.130;2022-10-26T09:13:10;14.50;99.90
11908;DHT22;6014;47.690;9.130;2022-10-26T09:15:55;14.60;99.90
11908;DHT22;6014;47.690;9.130;2022-10-26T09:18:39;14.70;99.90
11908;DHT22;6014;47.690;9.130;2022-10-26T09:21:26;15.10;99.90
11908;DHT22;6014;47.690;9.130;2022-10-26T09:24:04;15.10;99.90
11908;DHT22;6014;47.690;9.130;2022-10-26T09:26:37;15.30;99.90
11908;DHT22;6014;47.690;9.130;2022-10-26T09:29:23;15.40;99.90
11908;DHT22;6014;47.690;9.130;2022-10-26T09:31:55;15.70;99.90
11908;DHT22;6014;47.690;9.130;2022-10-26T09:34:30;15.90;99.90
11908;DHT22;6014;47.690;9.130;2022-10-26T09:37:12;16.10;99.90
11908;DHT22;6014;47.690;9.130;2022-10-26T09:39:51;16.00;99.90
11908;DHT22;6014;47.690;9.130;2022-10-26T09:42:27;16.30;99.90
11908;DHT22;6014;47.690;9.130;2022-10-26T09:45:05;16.60;99.90
11908;DHT22;6014;47.690;9.130;2022-10-26T09:47:42;16.60;99.90
11908;DHT22;6014;47.690;9.130;2022-10-26T09:50:19;16.90;99.90
11908;DHT22;6014;47.690;9.130;2022-10-26T09:52:50;17.10;99.90
11908;DHT22;6014;47.690;9.130;2022-10-26T09:55:20;17.00;99.90
11908;DHT22;6014;47.690;9.130;2022-10-26T09:57:51;17.10;99.90
11908;DHT22;6014;47.690;9.130;2022-10-26T10:00:24;17.20;99.90
11908;DHT22;6014;47.690;9.130;2022-10-26T10:02:55;17.50;99.90
11908;DHT22;6014;47.690;9.130;2022-10-26T10:05:26;17.70;99.90
11908;DHT22;6014;47.690;9.130;2022-10-26T10:08:19;17.90;99.90
11908;DHT22;6014;47.690;9.130;2022-10-26T10:10:57;17.90;99.90
11908;DHT22;6014;47.690;9.130;2022-10-26T10:13:29;18.10;99.90
11908;DHT22;6014;47.690;9.130;2022-10-26T10:16:05;18.30;99.90
11908;DHT22;6014;47.690;9.130;2022-10-26T10:18:38;18.30;99.90
11908;DHT22;6014;47.690;9.130;2022-10-26T10:21:08;18.00;99.90
11908;DHT22;6014;47.690;9.130;2022-10-26T10:23:47;18.40;99.90
11908;DHT22;6014;47.690;9.130;2022-10-26T10:26:17;18.60;99.90
11908;DHT22;6014;47.690;9.130;2022-10-26T10:28:55;18.60;99.90
11908;DHT22;6014;47.690;9.130;2022-10-26T10:31:30;18.60;99.90
11908;DHT22;6014;47.690;9.130;2022-10-26T10:34:14;19.00;99.90
11908;DHT22;6014;47.690;9.130;2022-10-26T10:36:43;19.10;99.90
11908;DHT22;6014;47.690;9.130;2022-10-26T10:39:32;18.70;99.90
11908;DHT22;6014;47.690;9.130;2022-10-26T10:42:04;18.90;99.90
11908;DHT22;6014;47.690;9.130;2022-10-26T10:44:38;19.00;99.90
11908;DHT22;6014;47.690;9.130;2022-10-26T10:47:18;19.10;99.90
11908;DHT22;6014;47.690;9.130;2022-10-26T10:49:55;19.00;99.90
11908;DHT22;6014;47.690;9.130;2022-10-26T10:52:27;19.00;99.90
11908;DHT22;6014;47.690;9.130;2022-10-26T10:55:13;19.00;99.90
11908;DHT22;6014;47.690;9.130;2022-10-26T10:57:56;19.30;99.90
11908;DHT22;6014;47.690;9.130;2022-10-26T11:00:33;19.50;99.90
11908;DHT22;6014;47.690;9.130;2022-10-26T11:03:40;19.50;99.90
11908;DHT22;6014;47.690;9.130;2022-10-26T11:06:16;19.50;99.90
11908;DHT22;6014;47.690;9.130;2022-10-26T11:08:49;19.60;99.90
11908;DHT22;6014;47.690;9.130;2022-10-26T11:11:24;19.80;99.90
11908;DHT22;6014;47.690;9.130;2022-10-26T11:13:57;19.90;99.90
11908;DHT22;6014;47.690;9.130;2022-10-26T11:16:30;19.90;99.90
11908;DHT22;6014;47.690;9.130;2022-10-26T11:19:06;19.80;99.90
11908;DHT22;6014;47.690;9.130;2022-10-26T11:21:45;19.90;99.90
11908;DHT22;6014;47.690;9.130;2022-10-26T11:24:19;19.80;99.90
11908;DHT22;6014;47.690;9.130;2022-10-26T11:26:53;20.00;99.90
11908;DHT22;6014;47.690;9.130;2022-10-26T11:29:30;19.90;99.90
11908;DHT22;6014;47.690;9.130;2022-10-26T11:32:13;20.10;99.90
11908;DHT22;6014;47.690;9.130;2022-10-26T11:34:49;20.40;99.90
11908;DHT22;6014;47.690;9.130;2022-10-26T11:37:24;20.60;99.90
11908;DHT22;6014;47.690;9.130;2022-10-26T11:40:04;20.60;99.90
11908;DHT22;6014;47.690;9.130;2022-10-26T11:42:45;20.60;99.90
11908;DHT22;6014;47.690;9.130;2022-10-26T11:45:22;20.90;99.90
11908;DHT22;6014;47.690;9.130;2022-10-26T11:47:59;21.00;99.90
11908;DHT22;6014;47.690;9.130;2022-10-26T11:50:35;21.30;99.90
11908;DHT22;6014;47.690;9.130;2022-10-26T11:53:11;21.10;99.90
11908;DHT22;6014;47.690;9.130;2022-10-26T11:55:46;21.20;99.90
11908;DHT22;6014;47.690;9.130;2022-10-26T11:58:16;21.00;99.90
11908;DHT22;6014;47.690;9.130;2022-10-26T12:00:48;20.90;99.90
11908;DHT22;6014;47.690;9.130;2022-10-26T12:03:24;21.00;99.90
11908;DHT22;6014;47.690;9.130;2022-10-26T12:05:56;21.00;99.90
11908;DHT22;6014;47.690;9.130;2022-10-26T12:08:28;21.40;99.90
11908;DHT22;6014;47.690;9.130;2022-10-26T12:11:04;21.60;99.90
11908;DHT22;6014;47.690;9.130;2022-10-26T12:13:38;21.70;99.90
11908;DHT22;6014;47.690;9.130;2022-10-26T12:16:15;21.80;99.90
11908;DHT22;6014;47.690;9.130;2022-10-26T12:18:51;21.90;99.90
11908;DHT22;6014;47.690;9.130;2022-10-26T12:21:26;21.90;99.90
11908;DHT22;6014;47.690;9.130;2022-10-26T12:23:57;21.80;99.90
11908;DHT22;6014;47.690;9.130;2022-10-26T12:26:51;21.60;99.90
11908;DHT22;6014;47.690;9.130;2022-10-26T12:29:31;21.60;99.90
11908;DHT22;6014;47.690;9.130;2022-10-26T12:32:29;21.70;99.90
11908;DHT22;6014;47.690;9.130;2022-10-26T12:35:36;21.70;99.90
11908;DHT22;6014;47.690;9.130;2022-10-26T12:41:28;22.20;99.90
11908;DHT22;6014;47.690;9.130;2022-10-26T12:44:33;22.30;99.90
11908;DHT22;6014;47.690;9.130;2022-10-26T12:47:03;22.30;99.90
11908;DHT22;6014;47.690;9.130;2022-10-26T12:49:59;22.30;99.90
11908;DHT22;6014;47.690;9.130;2022-10-26T12:52:44;22.40;99.90
11908;DHT22;6014;47.690;9.130;2022-10-26T12:55:36;22.40;99.90
11908;DHT22;6014;47.690;9.130;2022-10-26T13:01:56;22.60;99.90
11908;DHT22;6014;47.690;9.130;2022-10-26T13:05:01;22.50;99.90
11908;DHT22;6014;47.690;9.130;2022-10-26T13:07:36;22.60;99.90
11908;DHT22;6014;47.690;9.130;2022-10-26T13:10:20;22.70;99.90
11908;DHT22;6014;47.690;9.130;2022-10-26T13:12:52;22.90;99.90
11908;DHT22;6014;47.690;9.130;2022-10-26T13:15:25;22.70;99.90
11908;DHT22;6014;47.690;9.130;2022-10-26T13:18:01;22.40;99.90
11908;DHT22;6014;47.690;9.130;2022-10-26T13:20:51;22.70;99.90
11908;DHT22;6014;47.690;9.130;2022-10-26T13:23:24;22.40;99.90
11908;DHT22;6014;47.690;9.130;2022-10-26T13:26:06;22.40;99.90
11908;DHT22;6014;47.690;9.130;2022-10-26T13:28:48;22.60;99.90
11908;DHT22;6014;47.690;9.130;2022-10-26T13:31:51;22.80;99.90
11908;DHT22;6014;47.690;9.130;2022-10-26T13:34:24;22.90;99.90
11908;DHT22;6014;47.690;9.130;2022-10-26T13:37:04;22.70;99.90
11908;DHT22;6014;47.690;9.130;2022-10-26T13:39:40;22.80;99.90
11908;DHT22;6014;47.690;9.130;2022-10-26T13:42:15;22.50;99.90
11908;DHT22;6014;47.690;9.130;2022-10-26T13:44:48;22.60;99.90
11908;DHT22;6014;47.690;9.130;2022-10-26T13:47:24;22.70;99.90
11908;DHT22;6014;47.690;9.130;2022-10-26T13:49:58;22.50;99.90
11908;DHT22;6014;47.690;9.130;2022-10-26T13:52:34;22.60;99.90
11908;DHT22;6014;47.690;9.130;2022-10-26T13:55:09;22.40;99.90
11908;DHT22;6014;47.690;9.130;2022-10-26T13:57:47;22.30;99.90
11908;DHT22;6014;47.690;9.130;2022-10-26T14:00:23;22.50;99.90
11908;DHT22;6014;47.690;9.130;2022-10-26T14:02:52;22.40;99.90
11908;DHT22;6014;47.690;9.130;2022-10-26T14:05:21;22.40;99.90
11908;DHT22;6014;47.690;9.130;2022-10-26T14:07:52;22.30;99.90
11908;DHT22;6014;47.690;9.130;2022-10-26T14:10:26;22.10;99.90
11908;DHT22;6014;47.690;9.130;2022-10-26T14:12:58;22.10;99.90
11908;DHT22;6014;47.690;9.130;2022-10-26T14:15:30;22.10;99.90
11908;DHT22;6014;47.690;9.130;2022-10-26T14:18:00;22.10;99.90
11908;DHT22;6014;47.690;9.130;2022-10-26T14:20:31;22.10;99.90
11908;DHT22;6014;47.690;9.130;2022-10-26T14:23:00;22.10;99.90
11908;DHT22;6014;47.690;9.130;2022-10-26T14:25:29;22.20;99.90
11908;DHT22;6014;47.690;9.130;2022-10-26T14:28:23;22.10;99.90
11908;DHT22;6014;47.690;9.130;2022-10-26T14:30:53;22.00;99.90
11908;DHT22;6014;47.690;9.130;2022-10-26T14:33:27;22.10;99.90
11908;DHT22;6014;47.690;9.130;2022-10-26T14:35:56;22.00;99.90
11908;DHT22;6014;47.690;9.130;2022-10-26T14:38:25;22.00;99.90
11908;DHT22;6014;47.690;9.130;2022-10-26T14:40:56;22.00;99.90
11908;DHT22;6014;47.690;9.130;2022-10-26T14:43:26;22.00;99.90
11908;DHT22;6014;47.690;9.130;2022-10-26T14:45:55;21.90;99.90
11908;DHT22;6014;47.690;9.130;2022-10-26T14:48:27;22.10;99.90
11908;DHT22;6014;47.690;9.130;2022-10-26T14:50:59;22.10;99.90
11908;DHT22;6014;47.690;9.130;2022-10-26T14:53:35;22.00;99.90
11908;DHT22;6014;47.690;9.130;2022-10-26T14:56:19;22.20;99.90
11908;DHT22;6014;47.690;9.130;2022-10-26T14:58:52;22.20;99.90
11908;DHT22;6014;47.690;9.130;2022-10-26T15:01:31;22.00;99.90
11908;DHT22;6014;47.690;9.130;2022-10-26T15:04:04;21.70;99.90
11908;DHT22;6014;47.690;9.130;2022-10-26T15:06:39;21.50;99.90
11908;DHT22;6014;47.690;9.130;2022-10-26T15:09:28;21.60;99.90
11908;DHT22;6014;47.690;9.130;2022-10-26T15:11:59;21.60;99.90
11908;DHT22;6014;47.690;9.130;2022-10-26T15:14:32;21.60;99.90
11908;DHT22;6014;47.690;9.130;2022-10-26T15:17:01;21.60;99.90
11908;DHT22;6014;47.690;9.130;2022-10-26T15:19:30;21.50;99.90
11908;DHT22;6014;47.690;9.130;2022-10-26T15:21:58;21.40;99.90
11908;DHT22;6014;47.690;9.130;2022-10-26T15:24:31;21.30;99.90
11908;DHT22;6014;47.690;9.130;2022-10-26T15:27:11;21.40;99.90
11908;DHT22;6014;47.690;9.130;2022-10-26T15:29:44;21.60;99.90
11908;DHT22;6014;47.690;9.130;2022-10-26T15:32:25;21.80;99.90
11908;DHT22;6014;47.690;9.130;2022-10-26T15:35:20;21.60;99.90
11908;DHT22;6014;47.690;9.130;2022-10-26T15:37:54;21.70;99.90
11908;DHT22;6014;47.690;9.130;2022-10-26T15:40:25;21.60;99.90
11908;DHT22;6014;47.690;9.130;2022-10-26T15:42:58;21.30;99.90
11908;DHT22;6014;47.690;9.130;2022-10-26T15:45:30;21.00;99.90
11908;DHT22;6014;47.690;9.130;2022-10-26T15:48:16;20.80;99.90
11908;DHT22;6014;47.690;9.130;2022-10-26T15:50:46;20.40;99.90
11908;DHT22;6014;47.690;9.130;2022-10-26T15:53:19;20.20;99.90
11908;DHT22;6014;47.690;9.130;2022-10-26T15:55:51;19.70;99.90
11908;DHT22;6014;47.690;9.130;2022-10-26T15:58:21;19.20;99.90
11908;DHT22;6014;47.690;9.130;2022-10-26T16:00:51;18.90;99.90
11908;DHT22;6014;47.690;9.130;2022-10-26T16:03:21;18.60;99.90
11908;DHT22;6014;47.690;9.130;2022-10-26T16:05:56;18.40;99.90
11908;DHT22;6014;47.690;9.130;2022-10-26T16:08:26;18.20;99.90
11908;DHT22;6014;47.690;9.130;2022-10-26T16:10:56;18.00;99.90
11908;DHT22;6014;47.690;9.130;2022-10-26T16:13:28;17.80;99.90
11908;DHT22;6014;47.690;9.130;2022-10-26T16:16:04;17.70;99.90
11908;DHT22;6014;47.690;9.130;2022-10-26T16:18:37;17.50;99.90
11908;DHT22;6014;47.690;9.130;2022-10-26T16:21:10;17.40;99.90
11908;DHT22;6014;47.690;9.130;2022-10-26T16:23:39;17.20;99.90
11908;DHT22;6014;47.690;9.130;2022-10-26T16:26:08;17.00;99.90
11908;DHT22;6014;47.690;9.130;2022-10-26T16:28:36;16.80;99.90
11908;DHT22;6014;47.690;9.130;2022-10-26T16:31:12;16.60;99.90
11908;DHT22;6014;47.690;9.130;2022-10-26T16:33:42;16.50;99.90
11908;DHT22;6014;47.690;9.130;2022-10-26T16:36:12;16.30;99.90
11908;DHT22;6014;47.690;9.130;2022-10-26T16:38:40;16.20;99.90